Kasumigaura Air Base, Japan

3:01 PM JST on August 28, 2015 (GMT +0900)
Hyakuri Aero | | Change Station
CLOSE
Current Station
Airport
Location: Hyakuri AB,
Elevation: 115 ft
Nearby Weather Stations

Elev 115 ft 36.18 °N, 140.41 °E | Updated 1 hour ago

Overcast
Overcast
72 °F
Feels Like 72 °F
N
17
Wind Variable Wind from NE

Today
High -- | Low -- °F
--% Chance of Precip.
Yesterday
High -- | Low -- °F
Precip. -- in
5:07 AM 6:13 PM
Waxing Gibbous, 97% visible
Pressure 29.89 in
Visibility 6.2 miles
Clouds Few 1000 ft
Scattered Clouds 1200 ft
Overcast 2000 ft
Dew Point 63 °F
Humidity 73%
Rainfall 0.00 in
Snow Depth Not available.
UV 2 out of 12
Pollen Not available.
Air Quality Not available.
Flu Activity Not available.
SPECI RJAH 280451Z 04015KT 9999 FEW010 SCT012 OVC020 22/17 Q1012 RMK 1ST010 4CU012 8CU020 A2989
Pressure 29.89 in
Visibility 6.2 miles
Clouds Few 1000 ft
Scattered Clouds 1200 ft
Overcast 2000 ft
Dew Point 63 °F
Humidity 73%
Rainfall 0.00 in
Snow Depth Not available.
UV 2 out of 12
Pollen Not available.
Air Quality Not available.
Flu Activity Not available.
SPECI RJAH 280451Z 04015KT 9999 FEW010 SCT012 OVC020 22/17 Q1012 RMK 1ST010 4CU012 8CU020 A2989

10-Day Weather Forecast

×

Almanac

Astronomy

Aug. 28, 2015 Rise Set
Actual Time
Civil Twilight
Nautical Twilight
Astronomical Twilight
Moon
Length of Visible Light
Length of Day
Tomorrow will be .
, % of the Moon is Illuminated

Today's Extremes

Country Highs Country Lows

Community

WunderPhotos

Upload Photos

1,850,341 photos uploaded!

WunderBlogs® & News

Nearby

Air Quality

  Air Quality AQ Index Pollutant
Not available.

Snow Depth

Station Depth Elevation

Earthquake Activity

City Distance Mag. Time & Date
Minimum magnitude displayed is 2.5.

Coastal Water Temperatures

Place Temperature

Stations

Nearby Weather Stations

Station Location Temp. Windchill Dew Point Humidity Wind Precip. Elev Updated Type